sensor_id;sensor_type;location;lat;lon;timestamp;P1;durP1;ratioP1;P2;durP2;ratioP2
3769;SDS011;1900;48.890;9.190;2022-12-18T00:01:48;55.97;;;26.77;;
3769;SDS011;1900;48.890;9.190;2022-12-18T00:04:15;57.57;;;27.40;;
3769;SDS011;1900;48.890;9.190;2022-12-18T00:06:46;59.57;;;26.33;;
3769;SDS011;1900;48.890;9.190;2022-12-18T00:09:12;55.70;;;26.10;;
3769;SDS011;1900;48.890;9.190;2022-12-18T00:11:37;58.57;;;27.60;;
3769;SDS011;1900;48.890;9.190;2022-12-18T00:14:03;64.30;;;26.83;;
3769;SDS011;1900;48.890;9.190;2022-12-18T00:16:29;68.97;;;29.40;;
3769;SDS011;1900;48.890;9.190;2022-12-18T00:18:58;66.03;;;26.67;;
3769;SDS011;1900;48.890;9.190;2022-12-18T00:21:24;56.27;;;29.00;;
3769;SDS011;1900;48.890;9.190;2022-12-18T00:23:51;73.53;;;34.20;;
3769;SDS011;1900;48.890;9.190;2022-12-18T00:26:18;61.00;;;27.60;;
3769;SDS011;1900;48.890;9.190;2022-12-18T00:28:45;63.37;;;27.27;;
3769;SDS011;1900;48.890;9.190;2022-12-18T00:31:13;57.67;;;28.27;;
3769;SDS011;1900;48.890;9.190;2022-12-18T00:33:41;67.93;;;28.77;;
3769;SDS011;1900;48.890;9.190;2022-12-18T00:38:42;57.97;;;28.33;;
3769;SDS011;1900;48.890;9.190;2022-12-18T00:41:08;61.57;;;28.10;;
3769;SDS011;1900;48.890;9.190;2022-12-18T00:43:35;63.70;;;26.87;;
3769;SDS011;1900;48.890;9.190;2022-12-18T00:46:01;55.93;;;27.87;;
3769;SDS011;1900;48.890;9.190;2022-12-18T00:48:27;65.60;;;28.33;;
3769;SDS011;1900;48.890;9.190;2022-12-18T00:50:53;56.13;;;27.50;;
3769;SDS011;1900;48.890;9.190;2022-12-18T00:53:19;63.20;;;26.87;;
3769;SDS011;1900;48.890;9.190;2022-12-18T00:55:45;68.33;;;28.10;;
3769;SDS011;1900;48.890;9.190;2022-12-18T00:58:12;64.60;;;30.90;;
3769;SDS011;1900;48.890;9.190;2022-12-18T01:00:38;61.57;;;28.17;;
3769;SDS011;1900;48.890;9.190;2022-12-18T01:03:04;64.80;;;30.80;;
3769;SDS011;1900;48.890;9.190;2022-12-18T01:05:31;67.03;;;29.53;;
3769;SDS011;1900;48.890;9.190;2022-12-18T01:07:57;70.73;;;29.70;;
3769;SDS011;1900;48.890;9.190;2022-12-18T01:10:23;74.47;;;29.57;;
3769;SDS011;1900;48.890;9.190;2022-12-18T01:12:50;67.17;;;27.83;;
3769;SDS011;1900;48.890;9.190;2022-12-18T01:15:16;67.53;;;29.10;;
3769;SDS011;1900;48.890;9.190;2022-12-18T01:17:43;67.77;;;32.00;;
3769;SDS011;1900;48.890;9.190;2022-12-18T01:20:09;62.47;;;29.00;;
3769;SDS011;1900;48.890;9.190;2022-12-18T01:22:37;68.40;;;31.83;;
3769;SDS011;1900;48.890;9.190;2022-12-18T01:25:03;65.00;;;28.90;;
3769;SDS011;1900;48.890;9.190;2022-12-18T01:27:30;59.93;;;29.10;;
3769;SDS011;1900;48.890;9.190;2022-12-18T01:29:57;58.07;;;28.07;;
3769;SDS011;1900;48.890;9.190;2022-12-18T01:32:24;61.97;;;29.17;;
3769;SDS011;1900;48.890;9.190;2022-12-18T01:34:50;65.33;;;29.77;;
3769;SDS011;1900;48.890;9.190;2022-12-18T01:37:15;48.23;;;26.10;;
3769;SDS011;1900;48.890;9.190;2022-12-18T01:39:41;63.17;;;26.97;;
3769;SDS011;1900;48.890;9.190;2022-12-18T01:42:13;82.53;;;30.00;;
3769;SDS011;1900;48.890;9.190;2022-12-18T01:49:49;59.13;;;27.80;;
3769;SDS011;1900;48.890;9.190;2022-12-18T01:52:15;66.67;;;26.83;;
3769;SDS011;1900;48.890;9.190;2022-12-18T01:54:42;62.80;;;26.53;;
3769;SDS011;1900;48.890;9.190;2022-12-18T01:57:09;69.67;;;28.43;;
3769;SDS011;1900;48.890;9.190;2022-12-18T01:59:35;75.00;;;29.93;;
3769;SDS011;1900;48.890;9.190;2022-12-18T02:02:03;60.73;;;27.47;;
3769;SDS011;1900;48.890;9.190;2022-12-18T02:04:29;77.60;;;30.17;;
3769;SDS011;1900;48.890;9.190;2022-12-18T02:06:59;54.50;;;26.17;;
3769;SDS011;1900;48.890;9.190;2022-12-18T02:09:46;59.00;;;27.50;;
3769;SDS011;1900;48.890;9.190;2022-12-18T02:12:24;53.50;;;25.67;;
3769;SDS011;1900;48.890;9.190;2022-12-18T02:17:39;67.83;;;27.53;;
3769;SDS011;1900;48.890;9.190;2022-12-18T02:23:34;56.77;;;26.00;;
3769;SDS011;1900;48.890;9.190;2022-12-18T02:26:19;55.77;;;25.50;;
3769;SDS011;1900;48.890;9.190;2022-12-18T02:29:05;52.30;;;24.57;;
3769;SDS011;1900;48.890;9.190;2022-12-18T02:31:42;53.23;;;25.07;;
3769;SDS011;1900;48.890;9.190;2022-12-18T02:34:13;55.93;;;25.97;;
3769;SDS011;1900;48.890;9.190;2022-12-18T02:36:41;57.23;;;25.47;;
3769;SDS011;1900;48.890;9.190;2022-12-18T02:39:10;53.93;;;26.57;;
3769;SDS011;1900;48.890;9.190;2022-12-18T02:41:43;49.73;;;24.30;;
3769;SDS011;1900;48.890;9.190;2022-12-18T02:44:10;60.63;;;25.20;;
3769;SDS011;1900;48.890;9.190;2022-12-18T02:46:42;53.67;;;23.17;;
3769;SDS011;1900;48.890;9.190;2022-12-18T03:03:35;48.00;;;22.43;;
3769;SDS011;1900;48.890;9.190;2022-12-18T03:06:06;57.20;;;24.77;;
3769;SDS011;1900;48.890;9.190;2022-12-18T03:08:42;49.13;;;21.53;;
3769;SDS011;1900;48.890;9.190;2022-12-18T03:11:13;55.80;;;23.20;;
3769;SDS011;1900;48.890;9.190;2022-12-18T03:13:50;47.97;;;22.83;;
3769;SDS011;1900;48.890;9.190;2022-12-18T03:16:22;51.10;;;21.80;;
3769;SDS011;1900;48.890;9.190;2022-12-18T03:18:59;49.07;;;23.50;;
3769;SDS011;1900;48.890;9.190;2022-12-18T03:21:29;47.60;;;20.83;;
3769;SDS011;1900;48.890;9.190;2022-12-18T03:24:03;55.57;;;22.10;;
3769;SDS011;1900;48.890;9.190;2022-12-18T03:26:32;61.60;;;23.53;;
3769;SDS011;1900;48.890;9.190;2022-12-18T03:29:06;44.20;;;19.93;;
3769;SDS011;1900;48.890;9.190;2022-12-18T03:31:40;61.67;;;27.13;;
3769;SDS011;1900;48.890;9.190;2022-12-18T03:34:17;49.80;;;20.80;;
3769;SDS011;1900;48.890;9.190;2022-12-18T03:36:48;50.93;;;20.93;;
3769;SDS011;1900;48.890;9.190;2022-12-18T03:39:14;46.77;;;23.20;;
3769;SDS011;1900;48.890;9.190;2022-12-18T03:41:57;43.43;;;21.73;;
3769;SDS011;1900;48.890;9.190;2022-12-18T03:47:14;44.87;;;22.03;;
3769;SDS011;1900;48.890;9.190;2022-12-18T03:50:10;39.27;;;19.93;;
3769;SDS011;1900;48.890;9.190;2022-12-18T03:52:51;38.10;;;19.70;;
3769;SDS011;1900;48.890;9.190;2022-12-18T03:55:32;42.43;;;20.43;;
3769;SDS011;1900;48.890;9.190;2022-12-18T03:58:02;43.40;;;23.37;;
3769;SDS011;1900;48.890;9.190;2022-12-18T04:00:41;42.37;;;21.03;;
3769;SDS011;1900;48.890;9.190;2022-12-18T04:03:09;42.50;;;21.07;;
3769;SDS011;1900;48.890;9.190;2022-12-18T04:05:41;44.73;;;20.77;;
3769;SDS011;1900;48.890;9.190;2022-12-18T04:08:09;49.63;;;22.00;;
3769;SDS011;1900;48.890;9.190;2022-12-18T04:10:38;42.43;;;21.00;;
3769;SDS011;1900;48.890;9.190;2022-12-18T04:13:04;50.27;;;22.40;;
3769;SDS011;1900;48.890;9.190;2022-12-18T04:15:34;46.00;;;22.57;;
3769;SDS011;1900;48.890;9.190;2022-12-18T04:18:02;45.53;;;19.60;;
3769;SDS011;1900;48.890;9.190;2022-12-18T04:20:35;37.83;;;18.77;;
3769;SDS011;1900;48.890;9.190;2022-12-18T04:23:02;43.57;;;18.20;;
3769;SDS011;1900;48.890;9.190;2022-12-18T04:25:28;41.23;;;20.87;;
3769;SDS011;1900;48.890;9.190;2022-12-18T04:28:04;48.63;;;20.90;;
3769;SDS011;1900;48.890;9.190;2022-12-18T04:30:30;39.73;;;18.70;;
3769;SDS011;1900;48.890;9.190;2022-12-18T04:32:56;39.80;;;19.80;;
3769;SDS011;1900;48.890;9.190;2022-12-18T04:35:22;38.17;;;18.87;;
3769;SDS011;1900;48.890;9.190;2022-12-18T04:37:48;41.00;;;20.50;;
3769;SDS011;1900;48.890;9.190;2022-12-18T04:40:14;47.00;;;20.40;;
3769;SDS011;1900;48.890;9.190;2022-12-18T04:42:44;42.97;;;21.80;;
3769;SDS011;1900;48.890;9.190;2022-12-18T04:45:09;38.13;;;18.83;;
3769;SDS011;1900;48.890;9.190;2022-12-18T04:47:35;44.13;;;19.67;;
3769;SDS011;1900;48.890;9.190;2022-12-18T04:50:01;37.07;;;18.90;;
3769;SDS011;1900;48.890;9.190;2022-12-18T04:52:27;41.40;;;19.23;;
3769;SDS011;1900;48.890;9.190;2022-12-18T04:54:53;38.07;;;20.70;;
3769;SDS011;1900;48.890;9.190;2022-12-18T04:57:18;39.23;;;19.60;;
3769;SDS011;1900;48.890;9.190;2022-12-18T04:59:44;41.87;;;20.17;;
3769;SDS011;1900;48.890;9.190;2022-12-18T05:02:10;43.97;;;18.90;;
3769;SDS011;1900;48.890;9.190;2022-12-18T05:04:36;41.83;;;17.73;;
3769;SDS011;1900;48.890;9.190;2022-12-18T05:07:04;45.40;;;20.80;;
3769;SDS011;1900;48.890;9.190;2022-12-18T05:09:30;38.37;;;19.27;;
3769;SDS011;1900;48.890;9.190;2022-12-18T05:11:55;45.13;;;17.13;;
3769;SDS011;1900;48.890;9.190;2022-12-18T05:14:21;47.30;;;19.73;;
3769;SDS011;1900;48.890;9.190;2022-12-18T05:16:48;42.00;;;18.93;;
3769;SDS011;1900;48.890;9.190;2022-12-18T05:19:16;41.70;;;20.70;;
3769;SDS011;1900;48.890;9.190;2022-12-18T05:21:42;40.37;;;18.80;;
3769;SDS011;1900;48.890;9.190;2022-12-18T05:24:07;42.23;;;19.40;;
3769;SDS011;1900;48.890;9.190;2022-12-18T05:26:33;48.77;;;20.67;;
3769;SDS011;1900;48.890;9.190;2022-12-18T05:28:58;41.33;;;19.50;;
3769;SDS011;1900;48.890;9.190;2022-12-18T05:31:24;43.43;;;19.47;;
3769;SDS011;1900;48.890;9.190;2022-12-18T05:33:50;43.33;;;21.30;;
3769;SDS011;1900;48.890;9.190;2022-12-18T05:36:15;44.17;;;21.80;;
3769;SDS011;1900;48.890;9.190;2022-12-18T05:38:41;46.23;;;21.43;;
3769;SDS011;1900;48.890;9.190;2022-12-18T05:41:10;44.33;;;20.60;;
3769;SDS011;1900;48.890;9.190;2022-12-18T05:43:39;39.33;;;19.80;;
3769;SDS011;1900;48.890;9.190;2022-12-18T05:46:08;51.40;;;21.63;;
3769;SDS011;1900;48.890;9.190;2022-12-18T05:48:38;44.30;;;20.23;;
3769;SDS011;1900;48.890;9.190;2022-12-18T05:51:05;42.17;;;20.63;;
3769;SDS011;1900;48.890;9.190;2022-12-18T05:53:32;48.90;;;20.93;;
3769;SDS011;1900;48.890;9.190;2022-12-18T05:56:02;36.87;;;19.60;;
3769;SDS011;1900;48.890;9.190;2022-12-18T05:58:30;45.47;;;19.80;;
3769;SDS011;1900;48.890;9.190;2022-12-18T06:00:56;42.30;;;20.87;;
3769;SDS011;1900;48.890;9.190;2022-12-18T06:03:23;40.47;;;20.50;;
3769;SDS011;1900;48.890;9.190;2022-12-18T06:05:49;45.30;;;22.37;;
3769;SDS011;1900;48.890;9.190;2022-12-18T06:08:15;46.50;;;20.67;;
3769;SDS011;1900;48.890;9.190;2022-12-18T06:10:41;49.20;;;22.40;;
3769;SDS011;1900;48.890;9.190;2022-12-18T06:13:07;38.60;;;19.90;;
3769;SDS011;1900;48.890;9.190;2022-12-18T06:15:32;50.70;;;22.73;;
3769;SDS011;1900;48.890;9.190;2022-12-18T06:18:03;52.20;;;21.60;;
3769;SDS011;1900;48.890;9.190;2022-12-18T06:20:29;43.87;;;20.47;;
3769;SDS011;1900;48.890;9.190;2022-12-18T06:22:55;43.20;;;19.97;;
3769;SDS011;1900;48.890;9.190;2022-12-18T06:25:23;48.23;;;20.37;;
3769;SDS011;1900;48.890;9.190;2022-12-18T06:27:48;37.17;;;20.07;;
3769;SDS011;1900;48.890;9.190;2022-12-18T06:30:14;47.47;;;21.90;;
3769;SDS011;1900;48.890;9.190;2022-12-18T06:32:40;46.60;;;22.17;;
3769;SDS011;1900;48.890;9.190;2022-12-18T06:35:06;39.97;;;20.90;;
3769;SDS011;1900;48.890;9.190;2022-12-18T06:37:35;39.67;;;19.80;;
3769;SDS011;1900;48.890;9.190;2022-12-18T06:40:01;42.63;;;22.03;;
3769;SDS011;1900;48.890;9.190;2022-12-18T06:42:28;47.37;;;22.40;;
3769;SDS011;1900;48.890;9.190;2022-12-18T06:44:54;41.67;;;19.90;;
3769;SDS011;1900;48.890;9.190;2022-12-18T06:47:19;36.63;;;19.00;;
3769;SDS011;1900;48.890;9.190;2022-12-18T06:49:45;46.53;;;21.30;;
3769;SDS011;1900;48.890;9.190;2022-12-18T06:52:11;42.13;;;20.67;;
3769;SDS011;1900;48.890;9.190;2022-12-18T06:54:36;38.13;;;20.90;;
3769;SDS011;1900;48.890;9.190;2022-12-18T06:57:02;32.83;;;19.53;;
3769;SDS011;1900;48.890;9.190;2022-12-18T06:59:28;42.03;;;18.00;;
3769;SDS011;1900;48.890;9.190;2022-12-18T07:01:56;40.17;;;18.67;;
3769;SDS011;1900;48.890;9.190;2022-12-18T07:04:22;37.53;;;20.07;;
3769;SDS011;1900;48.890;9.190;2022-12-18T07:06:52;40.20;;;20.50;;
3769;SDS011;1900;48.890;9.190;2022-12-18T07:09:17;35.13;;;19.20;;
3769;SDS011;1900;48.890;9.190;2022-12-18T07:11:45;37.80;;;19.13;;
3769;SDS011;1900;48.890;9.190;2022-12-18T07:14:11;38.50;;;17.97;;
3769;SDS011;1900;48.890;9.190;2022-12-18T07:16:37;43.80;;;18.67;;
3769;SDS011;1900;48.890;9.190;2022-12-18T07:19:02;39.70;;;20.70;;
3769;SDS011;1900;48.890;9.190;2022-12-18T07:21:28;46.60;;;19.83;;
3769;SDS011;1900;48.890;9.190;2022-12-18T07:23:54;37.83;;;18.77;;
3769;SDS011;1900;48.890;9.190;2022-12-18T07:26:20;41.23;;;18.70;;
3769;SDS011;1900;48.890;9.190;2022-12-18T07:28:46;37.23;;;20.10;;
3769;SDS011;1900;48.890;9.190;2022-12-18T07:31:19;44.33;;;20.40;;
3769;SDS011;1900;48.890;9.190;2022-12-18T07:33:46;49.47;;;20.50;;
3769;SDS011;1900;48.890;9.190;2022-12-18T07:36:13;37.13;;;18.67;;
3769;SDS011;1900;48.890;9.190;2022-12-18T07:38:42;54.60;;;19.60;;
3769;SDS011;1900;48.890;9.190;2022-12-18T07:41:12;36.90;;;19.07;;
3769;SDS011;1900;48.890;9.190;2022-12-18T07:43:38;45.53;;;20.97;;
3769;SDS011;1900;48.890;9.190;2022-12-18T07:46:05;45.47;;;19.67;;
3769;SDS011;1900;48.890;9.190;2022-12-18T07:48:31;36.53;;;17.67;;
3769;SDS011;1900;48.890;9.190;2022-12-18T07:51:04;36.37;;;20.10;;
3769;SDS011;1900;48.890;9.190;2022-12-18T07:53:31;31.27;;;17.73;;
3769;SDS011;1900;48.890;9.190;2022-12-18T07:56:01;39.17;;;18.83;;
3769;SDS011;1900;48.890;9.190;2022-12-18T07:58:30;36.70;;;18.43;;
3769;SDS011;1900;48.890;9.190;2022-12-18T08:01:05;38.33;;;19.40;;
3769;SDS011;1900;48.890;9.190;2022-12-18T08:03:33;28.73;;;15.90;;
3769;SDS011;1900;48.890;9.190;2022-12-18T08:06:00;37.63;;;17.23;;
3769;SDS011;1900;48.890;9.190;2022-12-18T08:08:26;41.97;;;18.63;;
3769;SDS011;1900;48.890;9.190;2022-12-18T08:10:52;35.70;;;16.97;;
3769;SDS011;1900;48.890;9.190;2022-12-18T08:13:18;39.40;;;19.37;;
3769;SDS011;1900;48.890;9.190;2022-12-18T08:15:44;39.10;;;18.27;;
3769;SDS011;1900;48.890;9.190;2022-12-18T08:18:09;41.40;;;18.70;;
3769;SDS011;1900;48.890;9.190;2022-12-18T08:20:35;33.00;;;17.50;;
3769;SDS011;1900;48.890;9.190;2022-12-18T08:23:01;41.03;;;20.00;;
3769;SDS011;1900;48.890;9.190;2022-12-18T08:25:29;39.17;;;19.53;;
3769;SDS011;1900;48.890;9.190;2022-12-18T08:27:55;42.77;;;23.00;;
3769;SDS011;1900;48.890;9.190;2022-12-18T08:30:21;33.50;;;17.57;;
3769;SDS011;1900;48.890;9.190;2022-12-18T08:32:50;45.17;;;20.70;;
3769;SDS011;1900;48.890;9.190;2022-12-18T08:35:18;31.40;;;17.37;;
3769;SDS011;1900;48.890;9.190;2022-12-18T08:37:43;35.70;;;19.13;;
3769;SDS011;1900;48.890;9.190;2022-12-18T08:40:09;39.33;;;18.37;;
3769;SDS011;1900;48.890;9.190;2022-12-18T08:42:35;35.23;;;18.13;;
3769;SDS011;1900;48.890;9.190;2022-12-18T08:45:19;31.20;;;15.80;;
3769;SDS011;1900;48.890;9.190;2022-12-18T08:47:45;41.10;;;19.37;;
3769;SDS011;1900;48.890;9.190;2022-12-18T08:50:10;41.53;;;18.83;;
3769;SDS011;1900;48.890;9.190;2022-12-18T08:52:37;41.33;;;18.80;;
3769;SDS011;1900;48.890;9.190;2022-12-18T08:55:03;41.97;;;20.83;;
3769;SDS011;1900;48.890;9.190;2022-12-18T08:57:29;46.90;;;20.07;;
3769;SDS011;1900;48.890;9.190;2022-12-18T08:59:54;39.60;;;18.60;;
3769;SDS011;1900;48.890;9.190;2022-12-18T09:02:20;37.73;;;19.30;;
3769;SDS011;1900;48.890;9.190;2022-12-18T09:04:46;41.33;;;19.20;;
3769;SDS011;1900;48.890;9.190;2022-12-18T09:07:12;41.43;;;19.60;;
3769;SDS011;1900;48.890;9.190;2022-12-18T09:09:38;41.30;;;20.00;;
3769;SDS011;1900;48.890;9.190;2022-12-18T09:12:03;38.90;;;18.43;;
3769;SDS011;1900;48.890;9.190;2022-12-18T09:14:29;43.57;;;20.57;;
3769;SDS011;1900;48.890;9.190;2022-12-18T09:16:55;40.03;;;19.10;;
3769;SDS011;1900;48.890;9.190;2022-12-18T09:19:20;38.57;;;19.67;;
3769;SDS011;1900;48.890;9.190;2022-12-18T09:21:46;42.70;;;20.30;;
3769;SDS011;1900;48.890;9.190;2022-12-18T09:24:12;48.23;;;21.70;;
3769;SDS011;1900;48.890;9.190;2022-12-18T09:26:38;47.20;;;21.80;;
3769;SDS011;1900;48.890;9.190;2022-12-18T09:29:04;42.10;;;19.93;;
3769;SDS011;1900;48.890;9.190;2022-12-18T09:31:32;39.70;;;18.87;;
3769;SDS011;1900;48.890;9.190;2022-12-18T09:33:58;46.93;;;22.40;;
3769;SDS011;1900;48.890;9.190;2022-12-18T09:36:24;40.67;;;20.90;;
3769;SDS011;1900;48.890;9.190;2022-12-18T09:38:49;42.90;;;19.87;;
3769;SDS011;1900;48.890;9.190;2022-12-18T09:47:22;48.47;;;20.67;;
3769;SDS011;1900;48.890;9.190;2022-12-18T09:49:53;39.73;;;19.70;;
3769;SDS011;1900;48.890;9.190;2022-12-18T09:52:35;42.53;;;21.57;;
3769;SDS011;1900;48.890;9.190;2022-12-18T09:57:57;39.97;;;19.73;;
3769;SDS011;1900;48.890;9.190;2022-12-18T10:00:30;36.43;;;20.03;;
3769;SDS011;1900;48.890;9.190;2022-12-18T10:02:58;42.10;;;18.37;;
3769;SDS011;1900;48.890;9.190;2022-12-18T10:05:40;38.03;;;20.10;;
3769;SDS011;1900;48.890;9.190;2022-12-18T10:11:30;49.83;;;20.77;;
3769;SDS011;1900;48.890;9.190;2022-12-18T10:14:02;43.80;;;20.03;;
3769;SDS011;1900;48.890;9.190;2022-12-18T10:24:47;52.03;;;22.07;;
3769;SDS011;1900;48.890;9.190;2022-12-18T10:27:23;43.83;;;19.83;;
3769;SDS011;1900;48.890;9.190;2022-12-18T10:29:51;58.90;;;22.13;;
3769;SDS011;1900;48.890;9.190;2022-12-18T10:32:19;54.80;;;23.60;;
3769;SDS011;1900;48.890;9.190;2022-12-18T10:34:54;47.67;;;22.23;;
3769;SDS011;1900;48.890;9.190;2022-12-18T10:37:23;65.93;;;26.97;;
3769;SDS011;1900;48.890;9.190;2022-12-18T10:42:35;50.50;;;21.70;;
3769;SDS011;1900;48.890;9.190;2022-12-18T10:45:03;48.03;;;22.07;;
3769;SDS011;1900;48.890;9.190;2022-12-18T10:47:41;42.63;;;19.93;;
3769;SDS011;1900;48.890;9.190;2022-12-18T10:50:25;44.10;;;22.00;;
3769;SDS011;1900;48.890;9.190;2022-12-18T10:52:57;49.93;;;21.77;;
3769;SDS011;1900;48.890;9.190;2022-12-18T10:55:35;46.10;;;21.20;;
3769;SDS011;1900;48.890;9.190;2022-12-18T10:58:28;50.40;;;23.30;;
3769;SDS011;1900;48.890;9.190;2022-12-18T11:03:42;41.87;;;21.70;;
3769;SDS011;1900;48.890;9.190;2022-12-18T11:06:12;43.80;;;20.73;;
3769;SDS011;1900;48.890;9.190;2022-12-18T11:08:38;46.23;;;20.10;;
3769;SDS011;1900;48.890;9.190;2022-12-18T11:11:07;44.47;;;20.90;;
3769;SDS011;1900;48.890;9.190;2022-12-18T11:14:03;44.20;;;20.37;;
3769;SDS011;1900;48.890;9.190;2022-12-18T11:16:34;44.60;;;19.80;;
3769;SDS011;1900;48.890;9.190;2022-12-18T11:19:28;47.23;;;21.93;;
3769;SDS011;1900;48.890;9.190;2022-12-18T11:22:00;45.93;;;20.90;;
3769;SDS011;1900;48.890;9.190;2022-12-18T11:24:29;50.77;;;24.70;;
3769;SDS011;1900;48.890;9.190;2022-12-18T11:27:04;43.43;;;20.77;;
3769;SDS011;1900;48.890;9.190;2022-12-18T11:34:53;59.10;;;22.87;;
3769;SDS011;1900;48.890;9.190;2022-12-18T11:37:33;50.90;;;24.00;;
3769;SDS011;1900;48.890;9.190;2022-12-18T11:40:06;50.37;;;23.30;;
3769;SDS011;1900;48.890;9.190;2022-12-18T11:42:45;44.77;;;22.90;;
3769;SDS011;1900;48.890;9.190;2022-12-18T11:45:25;52.37;;;23.87;;
3769;SDS011;1900;48.890;9.190;2022-12-18T11:50:49;48.90;;;22.77;;
3769;SDS011;1900;48.890;9.190;2022-12-18T11:53:17;58.30;;;24.20;;
3769;SDS011;1900;48.890;9.190;2022-12-18T11:55:47;46.43;;;23.57;;
3769;SDS011;1900;48.890;9.190;2022-12-18T12:09:51;48.40;;;22.53;;
3769;SDS011;1900;48.890;9.190;2022-12-18T12:17:51;47.90;;;22.90;;
3769;SDS011;1900;48.890;9.190;2022-12-18T12:20:44;44.63;;;22.70;;
3769;SDS011;1900;48.890;9.190;2022-12-18T12:26:23;39.90;;;21.20;;
3769;SDS011;1900;48.890;9.190;2022-12-18T12:29:06;46.47;;;22.27;;
3769;SDS011;1900;48.890;9.190;2022-12-18T12:39:41;52.50;;;22.93;;
3769;SDS011;1900;48.890;9.190;2022-12-18T12:42:15;47.37;;;22.27;;
3769;SDS011;1900;48.890;9.190;2022-12-18T12:45:14;47.50;;;20.43;;
3769;SDS011;1900;48.890;9.190;2022-12-18T12:47:46;50.73;;;23.33;;
3769;SDS011;1900;48.890;9.190;2022-12-18T12:50:16;50.47;;;21.47;;
3769;SDS011;1900;48.890;9.190;2022-12-18T12:52:47;48.57;;;23.73;;
3769;SDS011;1900;48.890;9.190;2022-12-18T12:55:19;48.23;;;23.90;;
3769;SDS011;1900;48.890;9.190;2022-12-18T13:09:07;47.40;;;21.43;;
3769;SDS011;1900;48.890;9.190;2022-12-18T13:11:35;50.27;;;22.33;;
3769;SDS011;1900;48.890;9.190;2022-12-18T13:14:26;51.43;;;20.53;;
3769;SDS011;1900;48.890;9.190;2022-12-18T13:19:55;54.73;;;23.33;;
3769;SDS011;1900;48.890;9.190;2022-12-18T13:22:39;52.00;;;22.17;;
3769;SDS011;1900;48.890;9.190;2022-12-18T13:30:44;45.47;;;21.97;;
3769;SDS011;1900;48.890;9.190;2022-12-18T13:35:41;47.27;;;22.00;;
3769;SDS011;1900;48.890;9.190;2022-12-18T13:41:00;46.43;;;20.13;;
3769;SDS011;1900;48.890;9.190;2022-12-18T13:51:52;49.10;;;21.50;;
3769;SDS011;1900;48.890;9.190;2022-12-18T13:57:00;43.47;;;19.70;;
3769;SDS011;1900;48.890;9.190;2022-12-18T13:59:36;42.23;;;19.40;;
3769;SDS011;1900;48.890;9.190;2022-12-18T14:02:14;44.47;;;20.97;;
3769;SDS011;1900;48.890;9.190;2022-12-18T14:04:44;42.00;;;20.67;;
3769;SDS011;1900;48.890;9.190;2022-12-18T14:07:12;51.23;;;22.73;;
3769;SDS011;1900;48.890;9.190;2022-12-18T14:09:49;46.00;;;21.67;;
3769;SDS011;1900;48.890;9.190;2022-12-18T14:12:18;48.33;;;20.07;;
3769;SDS011;1900;48.890;9.190;2022-12-18T14:15:11;42.80;;;21.70;;
3769;SDS011;1900;48.890;9.190;2022-12-18T14:17:52;44.53;;;20.90;;
3769;SDS011;1900;48.890;9.190;2022-12-18T14:20:40;49.67;;;22.47;;
3769;SDS011;1900;48.890;9.190;2022-12-18T14:25:53;46.90;;;21.10;;
3769;SDS011;1900;48.890;9.190;2022-12-18T14:28:18;45.13;;;22.83;;
3769;SDS011;1900;48.890;9.190;2022-12-18T14:30:45;53.60;;;23.83;;
3769;SDS011;1900;48.890;9.190;2022-12-18T14:33:12;48.50;;;22.03;;
3769;SDS011;1900;48.890;9.190;2022-12-18T14:35:40;48.20;;;23.33;;
3769;SDS011;1900;48.890;9.190;2022-12-18T14:40:46;42.87;;;21.53;;
3769;SDS011;1900;48.890;9.190;2022-12-18T14:43:12;49.20;;;21.70;;
3769;SDS011;1900;48.890;9.190;2022-12-18T14:45:39;40.47;;;21.37;;
3769;SDS011;1900;48.890;9.190;2022-12-18T14:48:08;42.20;;;21.70;;
3769;SDS011;1900;48.890;9.190;2022-12-18T14:50:56;47.20;;;23.23;;
3769;SDS011;1900;48.890;9.190;2022-12-18T14:53:52;45.80;;;21.97;;
3769;SDS011;1900;48.890;9.190;2022-12-18T14:58:59;55.50;;;23.83;;
3769;SDS011;1900;48.890;9.190;2022-12-18T15:01:37;53.17;;;23.03;;
3769;SDS011;1900;48.890;9.190;2022-12-18T15:04:58;47.10;;;21.67;;
3769;SDS011;1900;48.890;9.190;2022-12-18T15:07:03;51.10;;;24.70;;
3769;SDS011;1900;48.890;9.190;2022-12-18T15:15:48;49.13;;;21.20;;
3769;SDS011;1900;48.890;9.190;2022-12-18T15:22:30;45.67;;;22.07;;
3769;SDS011;1900;48.890;9.190;2022-12-18T15:25:03;50.90;;;23.00;;
3769;SDS011;1900;48.890;9.190;2022-12-18T15:27:55;53.73;;;22.23;;
3769;SDS011;1900;48.890;9.190;2022-12-18T15:30:21;47.07;;;23.23;;
3769;SDS011;1900;48.890;9.190;2022-12-18T15:32:48;48.57;;;23.07;;
3769;SDS011;1900;48.890;9.190;2022-12-18T15:35:16;44.53;;;21.87;;
3769;SDS011;1900;48.890;9.190;2022-12-18T15:37:50;57.77;;;22.97;;
3769;SDS011;1900;48.890;9.190;2022-12-18T15:40:21;47.27;;;22.80;;
3769;SDS011;1900;48.890;9.190;2022-12-18T15:42:50;46.83;;;23.43;;
3769;SDS011;1900;48.890;9.190;2022-12-18T15:45:37;49.17;;;26.20;;
3769;SDS011;1900;48.890;9.190;2022-12-18T15:48:10;52.50;;;25.43;;
3769;SDS011;1900;48.890;9.190;2022-12-18T15:50:44;46.23;;;24.80;;
3769;SDS011;1900;48.890;9.190;2022-12-18T15:53:09;51.73;;;22.60;;
3769;SDS011;1900;48.890;9.190;2022-12-18T15:55:35;52.03;;;25.00;;
3769;SDS011;1900;48.890;9.190;2022-12-18T15:58:19;47.43;;;22.20;;
3769;SDS011;1900;48.890;9.190;2022-12-18T16:00:45;46.70;;;22.93;;
3769;SDS011;1900;48.890;9.190;2022-12-18T16:03:11;57.40;;;26.70;;
3769;SDS011;1900;48.890;9.190;2022-12-18T16:05:37;58.27;;;24.47;;
3769;SDS011;1900;48.890;9.190;2022-12-18T16:08:02;50.80;;;24.93;;
3769;SDS011;1900;48.890;9.190;2022-12-18T16:10:28;53.93;;;23.60;;
3769;SDS011;1900;48.890;9.190;2022-12-18T16:12:54;50.07;;;21.90;;
3769;SDS011;1900;48.890;9.190;2022-12-18T16:15:20;50.77;;;24.70;;
3769;SDS011;1900;48.890;9.190;2022-12-18T16:17:46;46.43;;;21.27;;
3769;SDS011;1900;48.890;9.190;2022-12-18T16:20:16;50.87;;;24.07;;
3769;SDS011;1900;48.890;9.190;2022-12-18T16:22:45;51.37;;;22.13;;
3769;SDS011;1900;48.890;9.190;2022-12-18T16:25:20;47.77;;;22.20;;
3769;SDS011;1900;48.890;9.190;2022-12-18T16:27:51;49.47;;;21.57;;
3769;SDS011;1900;48.890;9.190;2022-12-18T16:30:20;43.87;;;20.43;;
3769;SDS011;1900;48.890;9.190;2022-12-18T16:32:48;48.17;;;21.50;;
3769;SDS011;1900;48.890;9.190;2022-12-18T16:35:15;44.50;;;19.70;;
3769;SDS011;1900;48.890;9.190;2022-12-18T16:37:42;49.20;;;21.67;;
3769;SDS011;1900;48.890;9.190;2022-12-18T16:40:10;49.80;;;21.50;;
3769;SDS011;1900;48.890;9.190;2022-12-18T16:42:38;53.23;;;24.93;;
3769;SDS011;1900;48.890;9.190;2022-12-18T16:45:06;46.60;;;21.67;;
3769;SDS011;1900;48.890;9.190;2022-12-18T16:47:39;51.00;;;22.63;;
3769;SDS011;1900;48.890;9.190;2022-12-18T16:50:08;54.00;;;23.00;;
3769;SDS011;1900;48.890;9.190;2022-12-18T16:52:35;51.93;;;22.40;;
3769;SDS011;1900;48.890;9.190;2022-12-18T16:55:01;44.57;;;21.23;;
3769;SDS011;1900;48.890;9.190;2022-12-18T16:57:30;47.87;;;21.77;;
3769;SDS011;1900;48.890;9.190;2022-12-18T16:59:56;42.17;;;20.07;;
3769;SDS011;1900;48.890;9.190;2022-12-18T17:02:22;49.30;;;23.90;;
3769;SDS011;1900;48.890;9.190;2022-12-18T17:04:51;40.70;;;20.73;;
3769;SDS011;1900;48.890;9.190;2022-12-18T17:07:19;53.27;;;23.60;;
3769;SDS011;1900;48.890;9.190;2022-12-18T17:09:45;53.13;;;23.40;;
3769;SDS011;1900;48.890;9.190;2022-12-18T17:12:10;75.40;;;32.40;;
3769;SDS011;1900;48.890;9.190;2022-12-18T17:14:36;77.93;;;28.07;;
3769;SDS011;1900;48.890;9.190;2022-12-18T17:17:02;146.00;;;46.50;;
3769;SDS011;1900;48.890;9.190;2022-12-18T17:19:31;119.60;;;36.30;;
3769;SDS011;1900;48.890;9.190;2022-12-18T17:21:57;76.60;;;30.90;;
3769;SDS011;1900;48.890;9.190;2022-12-18T17:24:23;98.40;;;34.93;;
3769;SDS011;1900;48.890;9.190;2022-12-18T17:26:49;62.60;;;25.20;;
3769;SDS011;1900;48.890;9.190;2022-12-18T17:29:16;52.23;;;25.40;;
3769;SDS011;1900;48.890;9.190;2022-12-18T17:31:43;68.00;;;30.80;;